Time;durP1;ratioP1;P1;durP2;ratioP2;P2;SDS_P1;SDS_P2;PMS_P1;PMS_P2;Temp;Humidity;BMP_temperature;BMP_pressure;BME280_temperature;BME280_humidity;BME280_pressure;Samples;Min_cycle;Max_cycle;Signal;HPM_P1;HPM_P2
2023/07/03 04:22:32;;;;;;;8.30;4.30;;;;;;;18.11;70.88;99915.78;5089534;28;20385;-69
2023/07/03 04:24:57;;;;;;;10.02;4.68;;;;;;;18.15;70.91;99911.59;5089542;28;20028;-69
2023/07/03 04:27:22;;;;;;;9.15;4.50;;;;;;;18.20;70.38;99919.00;5089436;28;20047;-67
2023/07/03 04:29:48;;;;;;;12.02;4.15;;;;;;;18.23;70.16;99923.91;5089155;28;20036;-70
2023/07/03 04:32:13;;;;;;;7.22;4.50;;;;;;;18.27;70.86;99924.28;5089403;28;20039;-67
2023/07/03 04:34:38;;;;;;;11.93;5.07;;;;;;;18.31;70.64;99925.44;5089366;28;20133;-68
2023/07/03 04:37:04;;;;;;;9.15;4.28;;;;;;;18.32;70.27;99932.47;5089235;28;20039;-69
2023/07/03 04:39:31;;;;;;;8.95;4.63;;;;;;;18.34;71.18;99936.63;5088939;28;20105;-68
2023/07/03 04:42:00;;;;;;;8.15;4.65;;;;;;;18.35;71.90;99932.03;5089180;28;20043;-68
2023/07/03 04:44:26;;;;;;;10.05;4.88;;;;;;;18.31;71.23;99920.06;5089095;28;20039;-69
2023/07/03 04:46:55;;;;;;;10.98;4.65;;;;;;;18.38;71.99;99929.69;5089134;28;20040;-69
2023/07/03 04:49:29;;;;;;;13.13;5.30;;;;;;;18.43;70.91;99935.22;5088751;28;20071;-65
2023/07/03 04:51:54;;;;;;;8.75;5.15;;;;;;;18.47;70.73;99929.38;5089050;28;20119;-65
2023/07/03 04:54:20;;;;;;;7.95;4.35;;;;;;;18.44;70.47;99938.72;5087742;28;20066;-64
2023/07/03 04:56:48;;;;;;;14.52;5.00;;;;;;;18.51;70.51;99933.22;5088925;28;20588;-64
2023/07/03 04:59:14;;;;;;;11.60;4.47;;;;;;;18.49;71.03;99949.63;5088577;28;20404;-64
2023/07/03 05:01:44;;;;;;;10.88;5.05;;;;;;;18.50;71.01;99937.78;5088918;28;20097;-65
2023/07/03 05:04:10;;;;;;;10.45;5.18;;;;;;;18.54;70.39;99943.56;5088836;28;20447;-64
2023/07/03 05:06:36;;;;;;;8.02;4.75;;;;;;;18.53;69.51;99944.63;5088696;28;20044;-64
2023/07/03 05:09:02;;;;;;;12.82;4.72;;;;;;;18.62;69.93;99946.72;5088354;28;20066;-63
2023/07/03 05:11:29;;;;;;;8.95;5.20;;;;;;;18.57;69.79;99949.28;5088581;28;20549;-64
2023/07/03 05:13:55;;;;;;;12.32;5.00;;;;;;;18.59;69.80;99959.88;5088689;28;20071;-64
2023/07/03 05:16:20;;;;;;;10.25;4.72;;;;;;;18.59;70.19;99954.47;5088476;28;20060;-64
2023/07/03 05:18:45;;;;;;;9.13;4.45;;;;;;;18.60;70.97;99961.50;5088230;28;20493;-64
2023/07/03 05:21:11;;;;;;;8.93;4.50;;;;;;;18.60;70.29;99956.13;5088336;28;20047;-64
2023/07/03 05:23:37;;;;;;;9.73;4.65;;;;;;;18.64;69.98;99959.97;5088308;28;20400;-64
2023/07/03 05:26:03;;;;;;;12.73;5.25;;;;;;;18.62;70.64;99971.00;5088299;28;20036;-65
2023/07/03 05:28:29;;;;;;;12.00;4.72;;;;;;;18.67;69.80;99970.34;5087971;28;20043;-65
2023/07/03 05:30:56;;;;;;;9.50;4.82;;;;;;;18.71;69.10;99963.41;5088405;28;20037;-64
2023/07/03 05:33:23;;;;;;;8.55;4.53;;;;;;;18.68;69.56;99970.09;5077605;28;20028;-65
2023/07/03 05:35:48;;;;;;;9.90;4.68;;;;;;;18.82;68.01;99967.19;5074683;28;20082;-61
2023/07/03 05:38:14;;;;;;;10.38;4.68;;;;;;;18.80;68.03;99961.22;5074506;28;20040;-60
2023/07/03 05:40:39;;;;;;;10.82;4.88;;;;;;;18.85;67.58;99972.13;5073149;28;20093;-60
2023/07/03 05:43:05;;;;;;;9.35;4.28;;;;;;;18.82;68.24;99977.97;5074539;28;20055;-60
2023/07/03 05:45:30;;;;;;;11.10;4.55;;;;;;;18.82;68.31;99978.78;5074425;28;20033;-60
2023/07/03 05:47:55;;;;;;;10.90;4.55;;;;;;;18.83;68.00;99982.31;5074113;28;20094;-59
2023/07/03 05:50:21;;;;;;;10.57;4.88;;;;;;;18.94;67.82;99986.91;5074123;28;20509;-58
2023/07/03 05:52:46;;;;;;;11.88;5.03;;;;;;;18.96;68.67;99990.19;5074230;28;20067;-60
2023/07/03 05:55:12;;;;;;;11.55;4.88;;;;;;;18.97;69.75;99991.81;5074225;28;20033;-60
2023/07/03 05:57:38;;;;;;;9.32;4.65;;;;;;;19.01;69.70;99994.88;5074268;28;20029;-61
2023/07/03 06:00:12;;;;;;;11.95;4.70;;;;;;;19.06;69.71;100003.94;5074012;28;20040;-59
2023/07/03 06:02:38;;;;;;;9.05;4.75;;;;;;;19.04;68.93;100006.06;5074303;28;20101;-60
2023/07/03 06:05:04;;;;;;;11.77;5.05;;;;;;;19.16;70.28;100014.94;5074172;28;20052;-61
2023/07/03 06:07:30;;;;;;;8.25;4.47;;;;;;;19.13;68.71;100012.72;5074048;28;20150;-60
2023/07/03 06:09:57;;;;;;;11.02;4.90;;;;;;;19.19;70.03;100010.97;5073750;28;20170;-59
2023/07/03 06:12:28;;;;;;;8.13;4.13;;;;;;;19.24;66.93;100014.63;5074091;28;20496;-61
2023/07/03 06:14:54;;;;;;;7.45;4.38;;;;;;;19.20;66.19;100020.72;5073982;28;20146;-60
2023/07/03 06:17:19;;;;;;;7.15;3.75;;;;;;;19.20;63.33;100026.94;5073901;28;20041;-60
2023/07/03 06:19:45;;;;;;;9.23;4.38;;;;;;;19.19;63.96;100030.69;5071723;28;20093;-58
2023/07/03 06:22:10;;;;;;;7.15;3.90;;;;;;;19.34;64.79;100032.09;5073262;28;20044;-59
2023/07/03 06:24:35;;;;;;;9.23;4.80;;;;;;;19.27;65.36;100034.09;5074237;28;20149;-60
2023/07/03 06:27:02;;;;;;;9.40;4.72;;;;;;;19.27;64.67;100043.00;5073688;28;20035;-60
2023/07/03 06:29:28;;;;;;;8.82;4.40;;;;;;;19.23;64.21;100034.56;5073459;28;20406;-60
2023/07/03 06:31:53;;;;;;;10.77;4.53;;;;;;;19.30;64.61;100036.31;5072414;28;20051;-60
2023/07/03 06:34:19;;;;;;;9.70;4.05;;;;;;;19.35;65.14;100041.84;5073637;28;20076;-60
2023/07/03 06:36:44;;;;;;;9.30;4.13;;;;;;;19.37;64.19;100039.75;5073406;28;20111;-61
2023/07/03 06:39:10;;;;;;;9.13;4.25;;;;;;;19.40;64.16;100033.84;5073169;28;20040;-61
2023/07/03 06:41:35;;;;;;;8.50;3.97;;;;;;;19.47;63.72;100048.06;5073338;28;20124;-60
2023/07/03 06:44:02;;;;;;;9.85;4.25;;;;;;;19.57;63.94;100050.16;5072504;28;20043;-59
2023/07/03 06:46:28;;;;;;;10.32;3.63;;;;;;;19.60;63.26;100047.84;5073339;28;20085;-60
2023/07/03 06:48:55;;;;;;;9.13;4.25;;;;;;;19.52;60.55;100058.97;5073024;28;20126;-60
2023/07/03 06:51:21;;;;;;;9.50;4.28;;;;;;;19.44;61.72;100056.63;5073226;28;20043;-60
2023/07/03 06:53:46;;;;;;;8.88;3.65;;;;;;;19.58;62.39;100054.53;5073082;28;20129;-58
2023/07/03 06:56:12;;;;;;;11.20;4.50;;;;;;;19.53;59.69;100058.72;5073052;28;20063;-57
2023/07/03 06:58:37;;;;;;;7.85;3.28;;;;;;;19.50;60.27;100053.00;5072839;28;20048;-61
2023/07/03 07:01:07;;;;;;;8.88;3.67;;;;;;;19.51;59.79;100063.56;5073058;28;20048;-61
2023/07/03 07:03:33;;;;;;;9.50;4.50;;;;;;;19.65;58.28;100066.03;5073113;28;20056;-60
2023/07/03 07:06:07;;;;;;;8.05;3.78;;;;;;;19.67;59.89;100058.50;5072992;28;20044;-61
2023/07/03 07:08:33;;;;;;;7.30;3.42;;;;;;;19.83;58.09;100059.69;5072760;28;20074;-59
2023/07/03 07:10:58;;;;;;;8.68;3.10;;;;;;;19.76;59.50;100063.34;5073201;28;20052;-61
2023/07/03 07:13:23;;;;;;;6.68;2.85;;;;;;;19.72;59.10;100064.03;5072826;28;20049;-60
2023/07/03 07:15:49;;;;;;;8.77;3.60;;;;;;;19.76;58.80;100062.50;5072744;28;20036;-61
2023/07/03 07:18:14;;;;;;;7.40;3.70;;;;;;;19.81;59.02;100067.19;5072745;28;20473;-56
2023/07/03 07:20:40;;;;;;;8.73;3.03;;;;;;;19.86;58.77;100067.28;5072316;28;20037;-59
2023/07/03 07:23:09;;;;;;;15.07;3.75;;;;;;;19.89;58.16;100067.66;5072755;28;20109;-59
2023/07/03 07:25:34;;;;;;;9.52;3.50;;;;;;;19.90;58.62;100066.59;5072508;28;20032;-59
2023/07/03 07:28:01;;;;;;;10.77;3.40;;;;;;;19.89;57.82;100064.13;5072659;28;20101;-58
2023/07/03 07:30:26;;;;;;;8.30;3.05;;;;;;;19.94;57.27;100058.81;5072339;28;20051;-60
2023/07/03 07:32:52;;;;;;;7.80;3.22;;;;;;;19.99;58.09;100058.91;5072571;28;20480;-60
2023/07/03 07:35:18;;;;;;;5.75;3.35;;;;;;;20.11;58.46;100053.47;5072329;28;20090;-60
2023/07/03 07:37:44;;;;;;;6.35;3.08;;;;;;;20.19;57.99;100055.78;5072393;28;20036;-60
2023/07/03 07:40:10;;;;;;;8.90;3.20;;;;;;;20.09;59.02;100061.03;5072177;28;20039;-59
2023/07/03 07:42:36;;;;;;;6.97;2.85;;;;;;;20.14;56.61;100059.22;5072379;28;20044;-60
2023/07/03 07:45:04;;;;;;;10.07;3.65;;;;;;;20.15;57.51;100054.63;5072586;28;20407;-58
2023/07/03 07:47:30;;;;;;;9.27;2.92;;;;;;;20.22;57.71;100066.16;5072365;28;20066;-59
2023/07/03 07:49:55;;;;;;;7.85;3.42;;;;;;;20.45;56.63;100062.53;5071849;28;20040;-59
2023/07/03 07:52:23;;;;;;;5.55;3.17;;;;;;;20.45;56.62;100063.34;5072432;28;20028;-57
2023/07/03 07:54:56;;;;;;;6.10;2.83;;;;;;;20.43;56.59;100060.06;5072188;28;20033;-60
2023/07/03 07:57:22;;;;;;;6.15;2.85;;;;;;;20.61;57.25;100063.66;5072091;28;20036;-60
2023/07/03 07:59:47;;;;;;;5.65;2.88;;;;;;;20.76;56.39;100064.72;5071852;28;20020;-60
2023/07/03 08:02:13;;;;;;;6.53;2.63;;;;;;;20.82;54.62;100060.22;5072048;28;20123;-60
2023/07/03 08:04:38;;;;;;;11.15;3.58;;;;;;;20.90;54.08;100049.00;5071997;28;20139;-61
2023/07/03 08:07:04;;;;;;;7.03;2.90;;;;;;;20.80;53.83;100060.47;5072008;28;20043;-60
2023/07/03 08:09:29;;;;;;;8.25;2.72;;;;;;;20.90;53.52;100067.94;5071981;28;20045;-61
2023/07/03 08:11:55;;;;;;;11.75;3.35;;;;;;;21.00;54.30;100061.88;5072105;28;20079;-61
2023/07/03 08:14:20;;;;;;;8.98;2.83;;;;;;;21.02;54.42;100054.34;5072093;28;20068;-61
2023/07/03 08:16:46;;;;;;;5.47;2.90;;;;;;;21.13;55.13;100050.72;5071821;28;20032;-59
2023/07/03 08:19:11;;;;;;;6.82;2.45;;;;;;;21.21;53.24;100053.00;5071669;28;20040;-59
2023/07/03 08:21:37;;;;;;;9.68;2.72;;;;;;;21.38;54.28;100055.72;5071838;28;20039;-59
2023/07/03 08:24:02;;;;;;;8.18;2.63;;;;;;;21.54;53.57;100062.19;5072012;28;20110;-60
2023/07/03 08:26:28;;;;;;;7.18;2.38;;;;;;;21.53;51.18;100065.97;5071825;28;20056;-60
2023/07/03 08:28:53;;;;;;;6.45;2.67;;;;;;;21.62;55.60;100054.44;5070267;28;20105;-59
2023/07/03 08:31:18;;;;;;;7.65;2.90;;;;;;;21.63;52.29;100066.09;5071816;28;20057;-59
2023/07/03 08:33:44;;;;;;;7.50;3.33;;;;;;;21.68;51.75;100066.16;5071763;28;20048;-55
2023/07/03 08:36:09;;;;;;;6.03;2.55;;;;;;;21.85;52.14;100072.38;5071681;28;20127;-59
2023/07/03 08:38:35;;;;;;;7.50;2.75;;;;;;;22.03;50.61;100070.41;5071404;28;20042;-54
2023/07/03 08:41:01;;;;;;;4.68;2.55;;;;;;;22.06;52.80;100061.78;5071726;28;20481;-57
2023/07/03 08:43:35;;;;;;;4.50;2.50;;;;;;;21.92;50.82;100069.47;5071743;28;20036;-54
2023/07/03 08:46:02;;;;;;;3.38;2.00;;;;;;;22.03;50.48;100065.78;5071654;28;20040;-58
2023/07/03 08:48:29;;;;;;;5.93;2.42;;;;;;;22.18;50.50;100070.63;5071454;28;20123;-57
2023/07/03 08:50:58;;;;;;;6.45;2.22;;;;;;;22.21;49.36;100064.69;5071631;28;20040;-56
2023/07/03 08:53:37;;;;;;;5.65;2.45;;;;;;;22.25;49.80;100073.97;5071709;28;20045;-57
2023/07/03 08:56:14;;;;;;;8.10;2.30;;;;;;;22.27;49.28;100071.81;5071569;28;20054;-59
2023/07/03 08:58:40;;;;;;;5.55;2.08;;;;;;;22.20;48.55;100071.19;5071363;28;20052;-53
2023/07/03 09:01:20;;;;;;;10.77;2.58;;;;;;;22.24;48.48;100064.19;5071555;28;20082;-57
2023/07/03 09:03:51;;;;;;;10.18;3.25;;;;;;;22.14;48.21;100066.78;5071570;28;20397;-59
2023/07/03 09:06:28;;;;;;;4.93;2.45;;;;;;;22.11;48.53;100070.00;5071449;28;20040;-56
2023/07/03 09:09:00;;;;;;;5.43;2.35;;;;;;;22.23;49.41;100067.13;5074162;28;20094;-56
2023/07/03 09:11:28;;;;;;;8.13;2.63;;;;;;;22.41;49.78;100069.50;5075460;28;20043;-56
2023/07/03 09:13:57;;;;;;;7.80;2.75;;;;;;;22.75;49.50;100070.13;5075181;28;20041;-57
2023/07/03 09:16:23;;;;;;;5.57;2.42;;;;;;;22.99;48.72;100073.34;5075138;28;20037;-60
2023/07/03 09:19:20;;;;;;;6.00;2.58;;;;;;;22.99;50.75;100071.44;5074751;28;20131;-59
2023/07/03 09:21:48;;;;;;;8.50;3.08;;;;;;;23.15;48.66;100072.41;5074895;28;20397;-59
2023/07/03 09:24:23;;;;;;;7.47;2.63;;;;;;;23.03;49.38;100079.91;5074948;28;20040;-57
2023/07/03 09:27:12;;;;;;;5.80;2.90;;;;;;;22.97;49.18;100084.47;5074992;28;20103;-61
2023/07/03 09:29:38;;;;;;;8.27;2.60;;;;;;;22.91;47.69;100080.09;5074649;28;20085;-54
2023/07/03 09:32:04;;;;;;;8.07;2.63;;;;;;;22.65;46.04;100079.00;5074771;28;20041;-55
2023/07/03 09:34:58;;;;;;;5.57;2.55;;;;;;;22.92;46.93;100089.03;5073599;28;20516;-55
2023/07/03 09:37:23;;;;;;;4.47;2.60;;;;;;;23.01;47.18;100093.72;5074700;28;20032;-54
2023/07/03 09:39:52;;;;;;;4.60;2.33;;;;;;;22.91;46.84;100090.94;5074419;28;20500;-59
2023/07/03 09:42:17;;;;;;;6.50;2.38;;;;;;;23.01;48.31;100098.34;5074578;28;20035;-59
2023/07/03 09:44:43;;;;;;;10.07;2.92;;;;;;;22.79;47.12;100097.59;5074665;28;20175;-55
2023/07/03 09:47:38;;;;;;;5.57;2.70;;;;;;;22.82;47.21;100100.63;5074501;28;20537;-56
2023/07/03 09:50:05;;;;;;;8.68;2.10;;;;;;;22.93;47.50;100086.06;5065119;28;20422;-57
2023/07/03 09:52:31;;;;;;;4.55;1.95;;;;;;;23.19;47.29;100097.97;5074490;28;20036;-57
2023/07/03 09:55:02;;;;;;;8.07;2.38;;;;;;;23.48;46.65;100101.19;5074448;28;20507;-54
2023/07/03 09:57:28;;;;;;;6.93;2.00;;;;;;;23.43;46.18;100109.28;5074367;28;20115;-60
2023/07/03 10:00:07;;;;;;;8.93;2.90;;;;;;;23.69;46.48;100112.22;5073965;28;20040;-59
2023/07/03 10:02:35;;;;;;;5.13;1.95;;;;;;;23.48;45.65;100113.94;5074258;28;20033;-56
2023/07/03 10:05:00;;;;;;;4.22;2.10;;;;;;;23.16;46.94;100122.13;5074542;28;20417;-56
2023/07/03 10:07:25;;;;;;;8.45;2.33;;;;;;;23.07;46.50;100127.19;5074085;28;20047;-61
2023/07/03 10:09:51;;;;;;;5.80;2.00;;;;;;;22.94;47.20;100117.56;5073827;28;20498;-58
2023/07/03 10:12:34;;;;;;;8.32;2.03;;;;;;;22.82;47.25;100116.06;5074032;28;20127;-54
2023/07/03 10:15:10;;;;;;;5.03;2.50;;;;;;;22.53;47.69;100115.50;5073927;28;20161;-56
2023/07/03 10:17:38;;;;;;;8.38;2.53;;;;;;;22.38;50.03;100117.00;5073977;28;20125;-56
2023/07/03 10:20:13;;;;;;;4.65;2.65;;;;;;;22.28;48.86;100125.00;5073333;28;20037;-57
2023/07/03 10:22:42;;;;;;;5.70;2.40;;;;;;;22.18;49.78;100119.47;5073888;28;20421;-55
2023/07/03 10:25:17;;;;;;;5.13;2.50;;;;;;;22.04;49.71;100120.84;5073697;28;20028;-57
2023/07/03 10:27:43;;;;;;;7.15;2.45;;;;;;;22.10;48.44;100125.31;5073776;28;20068;-59
2023/07/03 10:30:15;;;;;;;8.15;2.47;;;;;;;21.98;49.95;100132.72;5073288;28;20028;-59
2023/07/03 10:32:43;;;;;;;5.53;2.40;;;;;;;22.05;49.24;100134.19;5073602;28;20032;-55
2023/07/03 10:35:28;;;;;;;4.70;2.22;;;;;;;22.09;49.50;100124.47;5073408;28;20500;-59
2023/07/03 10:38:13;;;;;;;6.82;2.20;;;;;;;21.85;49.74;100136.63;5073512;28;20565;-55
2023/07/03 10:40:58;;;;;;;6.20;1.92;;;;;;;21.91;49.32;100135.63;5073187;28;20389;-54
2023/07/03 10:43:28;;;;;;;4.68;2.08;;;;;;;21.90;49.79;100133.97;5073373;28;20605;-56
2023/07/03 10:45:54;;;;;;;7.68;2.10;;;;;;;21.90;49.04;100137.50;5073185;28;20501;-65
2023/07/03 10:48:24;;;;;;;2.90;1.35;;;;;;;21.98;48.68;100136.25;5072969;28;20072;-66
2023/07/03 10:51:29;;;;;;;4.60;1.50;;;;;;;22.19;49.94;100137.38;5073093;28;20097;-65
2023/07/03 10:54:09;;;;;;;4.88;1.70;;;;;;;22.82;48.28;100121.50;5073120;28;20036;-65
2023/07/03 10:56:44;;;;;;;2.72;1.50;;;;;;;23.18;46.58;100125.41;5072993;28;20059;-66
2023/07/03 10:59:22;;;;;;;4.53;1.80;;;;;;;23.62;45.73;100117.06;5072659;28;20041;-66
2023/07/03 11:02:04;;;;;;;2.95;1.23;;;;;;;23.39;46.55;100115.50;5072934;28;20063;-66
2023/07/03 11:04:59;;;;;;;1.80;1.13;;;;;;;23.52;45.12;100098.72;5073011;28;20055;-66
2023/07/03 11:07:47;;;;;;;1.60;1.00;;;;;;;23.75;44.36;100084.78;5072807;28;20033;-65
2023/07/03 11:10:33;;;;;;;2.40;1.08;;;;;;;24.20;46.21;100087.97;5072522;28;20047;-66
2023/07/03 11:13:04;;;;;;;3.78;1.30;;;;;;;24.87;42.30;100087.88;5072836;28;20055;-65
2023/07/03 11:15:52;;;;;;;2.95;1.20;;;;;;;24.87;43.22;100085.13;5072755;28;20032;-65
2023/07/03 11:18:31;;;;;;;4.15;1.55;;;;;;;25.12;41.96;100084.34;5072380;28;20075;-66
2023/07/03 11:21:14;;;;;;;3.88;1.73;;;;;;;25.49;41.36;100085.13;5072591;28;20033;-65
2023/07/03 11:24:21;;;;;;;5.15;1.88;;;;;;;26.10;40.42;100074.88;5072642;28;20089;-65
2023/07/03 11:27:02;;;;;;;6.00;1.80;;;;;;;26.41;39.00;100088.41;5030315;28;20041;-65
2023/07/03 11:29:28;;;;;;;3.50;1.60;;;;;;;26.02;38.95;100064.53;5029768;28;20198;-65
2023/07/03 11:31:55;;;;;;;3.60;1.40;;;;;;;26.56;38.39;100074.66;5042056;28;20061;-65
2023/07/03 11:34:23;;;;;;;2.63;1.52;;;;;;;26.56;38.09;100068.38;5052529;28;20452;-66
2023/07/03 11:36:57;;;;;;;4.85;1.70;;;;;;;26.07;39.21;100064.50;5052308;28;20414;-66
2023/07/03 11:39:29;;;;;;;3.10;1.63;;;;;;;25.78;40.78;100069.81;5052437;28;20037;-66
2023/07/03 11:42:00;;;;;;;6.47;1.92;;;;;;;25.52;40.24;100063.59;5052601;28;20450;-65
2023/07/03 11:44:38;;;;;;;5.22;2.20;;;;;;;25.33;41.08;100062.53;5052273;28;20037;-65
2023/07/03 11:47:10;;;;;;;2.97;1.75;;;;;;;24.70;42.04;100067.41;5052021;28;20489;-65
2023/07/03 11:49:41;;;;;;;5.97;1.90;;;;;;;24.55;42.40;100070.94;5051816;28;20282;-64
2023/07/03 11:52:11;;;;;;;3.15;1.70;;;;;;;24.21;43.47;100070.56;5052031;28;20120;-65
2023/07/03 11:54:39;;;;;;;4.90;1.70;;;;;;;23.95;43.34;100062.31;5052127;28;20090;-66
2023/07/03 11:57:10;;;;;;;4.63;1.80;;;;;;;23.94;44.41;100068.00;5051915;28;20068;-65
2023/07/03 11:59:38;;;;;;;2.97;1.15;;;;;;;23.86;44.54;100063.88;5051669;28;20371;-66
2023/07/03 12:02:16;;;;;;;3.33;1.33;;;;;;;23.73;44.30;100078.75;5051975;28;20075;-64
2023/07/03 12:04:45;;;;;;;2.25;0.98;;;;;;;23.70;44.35;100076.59;5051946;28;20047;-66
2023/07/03 12:07:19;;;;;;;2.17;1.02;;;;;;;23.65;44.46;100070.31;5051858;28;20527;-66
2023/07/03 12:09:46;;;;;;;2.17;1.20;;;;;;;23.51;43.47;100076.19;5051739;28;20048;-65
2023/07/03 12:12:15;;;;;;;1.85;1.08;;;;;;;23.58;44.33;100058.81;5051763;28;20029;-65
2023/07/03 12:14:40;;;;;;;1.45;1.10;;;;;;;23.72;44.85;100051.84;5051976;28;20036;-66
2023/07/03 12:17:24;;;;;;;3.80;1.17;;;;;;;23.83;43.75;100050.81;5051821;28;20045;-66
2023/07/03 12:20:13;;;;;;;3.88;2.25;;;;;;;24.16;45.57;100054.22;5051650;28;20051;-66
2023/07/03 12:22:48;;;;;;;2.72;1.33;;;;;;;24.43;44.90;100049.41;5041113;28;20057;-65
2023/07/03 12:25:19;;;;;;;1.65;1.10;;;;;;;24.50;44.06;100060.84;5051917;28;20036;-65
2023/07/03 12:27:46;;;;;;;3.10;1.23;;;;;;;24.45;45.61;100060.84;5063327;28;20041;-66
2023/07/03 12:30:21;;;;;;;2.72;1.17;;;;;;;24.69;43.40;100052.16;5071445;28;20067;-65
2023/07/03 12:32:48;;;;;;;2.67;1.40;;;;;;;24.63;43.51;100049.44;5071818;28;20032;-66
2023/07/03 12:35:16;;;;;;;1.50;0.90;;;;;;;24.69;43.88;100066.59;5071650;28;20068;-66
2023/07/03 12:37:45;;;;;;;5.05;1.17;;;;;;;24.31;43.76;100065.13;5071755;28;20101;-65
2023/07/03 12:40:13;;;;;;;2.75;1.10;;;;;;;24.28;44.30;100065.69;5071431;28;20064;-66
2023/07/03 12:42:38;;;;;;;2.78;1.25;;;;;;;24.14;44.00;100065.38;5072712;28;20031;-65
2023/07/03 12:45:17;;;;;;;4.10;1.00;;;;;;;23.88;43.39;100069.88;5075654;28;20048;-66
2023/07/03 12:47:43;;;;;;;2.08;1.23;;;;;;;23.80;44.07;100064.97;5075628;28;20124;-66
2023/07/03 12:50:14;;;;;;;2.83;1.63;;;;;;;23.38;44.69;100073.09;5075257;28;20071;-65
2023/07/03 12:52:39;;;;;;;3.88;1.15;;;;;;;23.32;45.92;100061.38;5075543;28;20120;-66
2023/07/03 12:55:06;;;;;;;3.10;1.40;;;;;;;23.20;46.88;100069.72;5075459;28;20392;-67
2023/07/03 12:57:34;;;;;;;3.42;1.38;;;;;;;23.13;46.89;100074.53;5075378;28;20090;-65
2023/07/03 13:00:01;;;;;;;2.47;1.45;;;;;;;23.18;46.55;100079.22;5075095;28;20037;-66
2023/07/03 13:02:28;;;;;;;3.03;1.25;;;;;;;23.26;46.48;100071.38;5075225;28;20035;-66
2023/07/03 13:05:04;;;;;;;4.30;1.40;;;;;;;23.33;45.97;100063.00;5075257;28;20500;-65
2023/07/03 13:07:30;;;;;;;4.65;1.52;;;;;;;23.40;46.17;100074.47;5074980;28;20040;-66
2023/07/03 13:09:58;;;;;;;2.13;1.20;;;;;;;23.67;46.08;100059.97;5074875;28;20041;-65
2023/07/03 13:12:26;;;;;;;3.40;1.55;;;;;;;23.85;45.26;100064.16;5074980;28;20716;-65
2023/07/03 13:15:33;;;;;;;4.93;1.65;;;;;;;24.58;45.15;100054.91;5075053;28;20040;-65
2023/07/03 13:18:22;;;;;;;2.53;1.48;;;;;;;25.06;44.87;100057.38;5037906;28;20132;-65
2023/07/03 13:21:04;;;;;;;2.42;1.30;;;;;;;25.22;43.93;100039.91;5054878;28;20478;-65
2023/07/03 13:23:41;;;;;;;3.28;1.55;;;;;;;25.54;43.41;100033.31;5055150;28;20045;-65
2023/07/03 13:26:12;;;;;;;5.23;1.70;;;;;;;25.80;43.91;100034.06;5054854;28;20040;-65
2023/07/03 13:28:51;;;;;;;3.95;1.50;;;;;;;25.81;43.37;100035.69;5054562;28;20049;-65
2023/07/03 13:31:17;;;;;;;4.68;1.40;;;;;;;25.81;43.36;100036.50;5054726;28;20039;-67
2023/07/03 13:33:58;;;;;;;5.53;2.28;;;;;;;25.79;42.43;100024.25;5054733;28;20045;-67
2023/07/03 13:36:31;;;;;;;5.78;1.90;;;;;;;25.64;42.71;100042.28;5054801;28;20036;-67
2023/07/03 13:39:07;;;;;;;3.55;1.38;;;;;;;25.51;42.28;100026.50;5054490;28;20111;-67
2023/07/03 13:41:33;;;;;;;5.20;1.60;;;;;;;24.98;41.19;100025.22;5054795;28;20533;-66
2023/07/03 13:44:05;;;;;;;5.43;2.17;;;;;;;24.90;42.39;100029.28;5054556;28;20033;-66
2023/07/03 13:46:33;;;;;;;4.20;1.90;;;;;;;24.78;42.50;100031.50;5054401;28;20037;-66
2023/07/03 13:48:58;;;;;;;4.20;1.63;;;;;;;24.80;44.04;100032.03;5054209;28;20069;-66
2023/07/03 13:51:23;;;;;;;2.42;1.40;;;;;;;24.72;44.34;100025.22;5054281;28;20049;-66
2023/07/03 13:53:50;;;;;;;3.38;1.80;;;;;;;24.58;45.30;100040.44;5053945;28;20039;-66
2023/07/03 13:56:17;;;;;;;3.28;1.63;;;;;;;24.40;44.80;100030.09;5054866;28;20037;-66
2023/07/03 13:58:42;;;;;;;7.05;1.85;;;;;;;24.19;44.63;100034.59;5054122;28;20037;-66
2023/07/03 14:01:07;;;;;;;3.08;1.80;;;;;;;23.97;45.48;100041.09;5054311;28;20398;-66
2023/07/03 14:03:34;;;;;;;8.68;2.42;;;;;;;23.89;46.01;100040.78;5054180;28;20123;-66
2023/07/03 14:05:59;;;;;;;4.10;2.38;;;;;;;23.75;47.05;100043.19;5054093;28;20419;-67
2023/07/03 14:08:27;;;;;;;2.53;1.45;;;;;;;23.86;47.47;100039.41;5052707;28;20041;-66
2023/07/03 14:10:52;;;;;;;4.72;1.75;;;;;;;23.67;47.73;100030.06;5054055;28;20048;-66
2023/07/03 14:13:18;;;;;;;3.97;1.85;;;;;;;23.99;47.91;100033.47;5053937;28;20498;-67
2023/07/03 14:15:43;;;;;;;5.63;2.15;;;;;;;24.14;46.99;100021.00;5053967;28;20133;-66
2023/07/03 14:18:09;;;;;;;6.10;2.10;;;;;;;24.16;47.36;100021.56;5053960;28;20044;-66
2023/07/03 14:20:34;;;;;;;5.18;2.05;;;;;;;24.17;46.86;100015.03;5053498;28;20559;-65
2023/07/03 14:23:00;;;;;;;5.20;2.13;;;;;;;24.18;47.48;100031.06;5053943;28;20044;-66
2023/07/03 14:25:26;;;;;;;5.00;2.05;;;;;;;24.22;47.04;100015.84;5053769;28;20243;-65
2023/07/03 14:27:51;;;;;;;7.05;2.00;;;;;;;24.21;47.48;100019.66;5053717;28;20041;-66
2023/07/03 14:30:17;;;;;;;3.03;1.70;;;;;;;24.31;47.46;100016.13;5053416;28;20048;-66
2023/07/03 14:32:42;;;;;;;6.68;2.08;;;;;;;24.21;46.54;100014.22;5053566;28;20047;-66
2023/07/03 14:35:09;;;;;;;5.00;2.13;;;;;;;24.36;47.75;100006.13;5053610;28;20043;-65
2023/07/03 14:37:36;;;;;;;2.83;1.77;;;;;;;24.49;45.84;100007.50;5053597;28;20482;-65
2023/07/03 14:40:03;;;;;;;5.47;1.83;;;;;;;24.49;45.28;100002.03;5053228;28;20029;-65
2023/07/03 14:42:29;;;;;;;3.03;1.85;;;;;;;24.64;46.75;100001.22;5053352;28;20367;-66
2023/07/03 14:44:54;;;;;;;2.78;1.60;;;;;;;24.66;46.83;100003.72;5053321;28;20584;-65
2023/07/03 14:47:20;;;;;;;4.10;1.85;;;;;;;24.88;46.59;99996.06;5053414;28;20116;-65
2023/07/03 14:49:46;;;;;;;4.97;1.83;;;;;;;24.99;45.82;99996.88;5053018;28;20478;-65
2023/07/03 14:52:13;;;;;;;4.97;1.95;;;;;;;24.69;44.24;99990.34;5053173;28;20136;-65
2023/07/03 14:54:38;;;;;;;;;;;;;;;24.74;45.76;99990.34;5053794;28;20059;-65
2023/07/03 14:57:04;;;;;;;4.45;1.70;;;;;;;24.74;45.77;99992.25;5052937;28;20560;-65
2023/07/03 14:59:30;;;;;;;6.70;2.38;;;;;;;24.73;45.96;99972.38;5053029;28;20079;-65
2023/07/03 15:01:55;;;;;;;6.00;2.72;;;;;;;24.70;46.16;99980.28;5053174;28;20039;-65
2023/07/03 15:04:21;;;;;;;4.20;1.85;;;;;;;24.73;46.01;99966.13;5052951;28;20037;-65
2023/07/03 15:06:46;;;;;;;5.78;1.52;;;;;;;24.66;44.04;99971.03;5052324;28;20110;-65
2023/07/03 15:09:12;;;;;;;3.45;1.50;;;;;;;24.68;45.47;99969.66;5052596;28;20033;-65
2023/07/03 15:11:37;;;;;;;2.85;1.52;;;;;;;24.66;45.53;99966.41;5068076;28;20414;-65
2023/07/03 15:14:06;;;;;;;7.82;2.00;;;;;;;24.62;45.94;99955.22;5052898;28;20048;-65
2023/07/03 15:16:33;;;;;;;4.43;1.65;;;;;;;24.55;46.26;99960.13;5052722;28;20124;-65
2023/07/03 15:19:06;;;;;;;2.05;1.27;;;;;;;24.67;45.79;99954.41;5052497;28;20041;-65
2023/07/03 15:21:36;;;;;;;3.33;1.48;;;;;;;24.66;45.76;99947.34;5053038;28;20109;-65
2023/07/03 15:24:05;;;;;;;3.72;1.63;;;;;;;24.79;45.67;99948.69;5052556;28;20040;-66
2023/07/03 15:26:32;;;;;;;2.53;1.50;;;;;;;24.80;45.81;99944.88;5052722;28;20398;-66
2023/07/03 15:28:57;;;;;;;4.77;1.73;;;;;;;24.82;45.24;99943.50;5052402;28;20079;-66
2023/07/03 15:31:23;;;;;;;6.00;1.80;;;;;;;24.79;46.04;99935.06;5052457;28;20135;-66
2023/07/03 15:33:52;;;;;;;3.28;1.58;;;;;;;24.88;45.35;99944.31;5052677;28;20044;-66
2023/07/03 15:36:17;;;;;;;5.80;3.20;;;;;;;24.81;44.54;99935.59;5052387;28;20510;-65
2023/07/03 15:38:43;;;;;;;7.25;3.05;;;;;;;24.73;45.86;99939.72;5051914;28;20041;-65
2023/07/03 15:41:08;;;;;;;2.92;1.55;;;;;;;24.68;46.17;99936.97;5052305;28;20098;-51
2023/07/03 15:43:34;;;;;;;3.70;2.03;;;;;;;24.68;46.02;99936.16;5052283;28;20040;-56
2023/07/03 15:46:08;;;;;;;7.28;2.25;;;;;;;24.58;45.88;99947.88;5052258;28;20036;-54
2023/07/03 15:48:35;;;;;;;3.65;1.83;;;;;;;24.38;45.58;99945.97;5051917;28;20037;-53
2023/07/03 15:51:03;;;;;;;2.30;1.45;;;;;;;24.30;45.12;99949.19;5052145;28;20037;-56
2023/07/03 15:53:29;;;;;;;2.58;1.30;;;;;;;24.19;45.56;99947.53;5052200;28;20029;-54
2023/07/03 15:55:58;;;;;;;3.08;1.55;;;;;;;24.11;45.96;99948.91;5052025;28;20029;-55
2023/07/03 15:58:23;;;;;;;3.63;1.80;;;;;;;24.13;46.22;99951.38;5051929;28;20040;-55